createdAt,value
2022-11-05T00:21:37.603Z,20
2022-11-05T00:52:46.876Z,22
2022-11-05T01:22:35.228Z,26
2022-11-05T01:52:37.378Z,25
2022-11-05T02:22:36.705Z,23
2022-11-05T02:52:33.638Z,24
2022-11-05T03:22:36.960Z,22
2022-11-05T03:52:38.052Z,24
2022-11-05T04:22:43.196Z,28
2022-11-05T04:52:39.196Z,28
2022-11-05T05:22:39.159Z,33
2022-11-05T05:52:38.161Z,36
2022-11-05T06:22:41.251Z,33
2022-11-05T06:52:43.230Z,27
2022-11-05T07:22:39.402Z,26
2022-11-05T07:52:38.822Z,26
2022-11-05T08:22:35.639Z,29
2022-11-05T08:52:38.954Z,34
2022-11-05T09:22:38.295Z,39
2022-11-05T09:52:41.533Z,39
2022-11-05T10:22:38.729Z,44
2022-11-05T10:52:39.906Z,39
2022-11-05T11:22:36.176Z,37
2022-11-05T11:52:37.599Z,34
2022-11-05T12:22:39.066Z,32
2022-11-05T12:52:40.695Z,29
2022-11-05T13:22:39.211Z,30
2022-11-05T13:52:39.906Z,28
2022-11-05T14:23:44.358Z,29
2022-11-05T14:53:37.989Z,33
2022-11-05T15:23:36.257Z,31
2022-11-05T15:53:31.035Z,33
2022-11-05T16:23:32.094Z,37
2022-11-05T16:53:27.755Z,35
2022-11-05T17:23:27.176Z,31
2022-11-05T17:53:24.808Z,38
2022-11-05T18:23:24.391Z,35
2022-11-05T18:53:20.231Z,29
2022-11-05T19:23:21.361Z,26
2022-11-05T19:53:21.219Z,26
2022-11-05T20:23:14.456Z,26
2022-11-05T20:53:14.200Z,26
2022-11-05T21:23:14.034Z,26
2022-11-05T21:53:13.356Z,24
2022-11-05T22:23:09.697Z,25
2022-11-05T22:53:07.495Z,23
2022-11-05T23:23:08.446Z,32
2022-11-05T23:53:07.839Z,24
